Time;durP1;ratioP1;P1;durP2;ratioP2;P2;SDS_P1;SDS_P2;PMS_P1;PMS_P2;Temp;Humidity;BMP_temperature;BMP_pressure;BME280_temperature;BME280_humidity;BME280_pressure;Samples;Min_cycle;Max_cycle;Signal;HPM_P1;HPM_P2
2021/07/09 00:01:40;;;;;;;22.02;11.77;;;;;;;14.38;79.89;102263.91;4858444;29;20034;-89
2021/07/09 00:04:18;;;;;;;23.92;13.40;;;;;;;14.35;80.64;102260.50;4829411;29;20050;-88
2021/07/09 00:07:12;;;;;;;21.20;11.95;;;;;;;14.29;80.14;102264.31;4867439;29;20052;-89
2021/07/09 00:09:38;;;;;;;;;;;;;;;14.24;79.52;102253.03;4830512;29;20079;-89
2021/07/09 00:12:05;;;;;;;20.10;11.05;;;;;;;14.15;79.91;102249.84;4836577;29;19920;-90
2021/07/09 00:14:32;;;;;;;25.83;12.25;;;;;;;14.11;80.03;102250.91;4820662;29;20057;-89
2021/07/09 00:16:57;;;;;;;23.00;12.77;;;;;;;14.07;79.96;102250.19;4820177;29;20042;-90
2021/07/09 00:19:26;;;;;;;24.95;13.85;;;;;;;14.03;79.49;102251.28;4823033;29;20034;-90
2021/07/09 00:21:51;;;;;;;19.95;11.15;;;;;;;14.02;79.91;102251.34;4860256;29;20071;-91
2021/07/09 00:24:18;;;;;;;26.88;13.35;;;;;;;13.98;79.36;102247.09;4866607;29;20037;-90
2021/07/09 00:26:51;;;;;;;23.05;12.10;;;;;;;14.00;81.36;102251.41;4866459;29;20052;-90
2021/07/09 00:29:19;;;;;;;32.00;15.80;;;;;;;14.11;83.60;102242.94;4879627;29;20024;-91
2021/07/09 00:31:46;;;;;;;31.17;14.70;;;;;;;14.12;83.40;102252.63;4878780;29;20109;-88
2021/07/09 00:34:12;;;;;;;28.75;14.30;;;;;;;14.14;83.54;102244.59;4918859;24;20060;-92
2021/07/09 00:36:42;;;;;;;39.65;18.25;;;;;;;14.15;84.14;102249.00;4878877;29;20088;-88
2021/07/09 00:39:09;;;;;;;34.45;15.20;;;;;;;14.18;84.28;102246.19;4893123;29;20051;-88
2021/07/09 00:41:35;;;;;;;32.70;14.93;;;;;;;14.19;83.67;102253.22;4909204;29;20073;-89
2021/07/09 00:44:05;;;;;;;26.38;14.25;;;;;;;14.15;82.46;102249.00;4892095;29;20393;-89
2021/07/09 00:46:41;;;;;;;25.45;12.35;;;;;;;14.11;82.16;102250.06;4908384;29;20027;-89
2021/07/09 00:49:09;;;;;;;22.40;12.38;;;;;;;14.04;82.09;102250.31;4890632;29;20059;-91
2021/07/09 00:51:35;;;;;;;29.17;14.38;;;;;;;13.99;82.48;102249.69;4890416;29;20044;-90
2021/07/09 00:54:03;;;;;;;23.55;11.93;;;;;;;13.93;81.39;102253.47;4906871;29;20024;-88
2021/07/09 00:56:29;;;;;;;29.85;14.05;;;;;;;13.90;81.30;102252.75;4891508;29;20036;-89
2021/07/09 00:58:54;;;;;;;26.73;13.80;;;;;;;13.91;82.30;102249.16;4876395;29;20024;-87
2021/07/09 01:01:20;;;;;;;25.35;13.05;;;;;;;13.83;81.64;102252.16;4876314;29;20029;-89
2021/07/09 01:03:45;;;;;;;25.70;13.73;;;;;;;13.79;81.75;102255.91;4861243;29;20185;-89
2021/07/09 01:06:13;;;;;;;28.75;13.05;;;;;;;13.75;82.05;102254.28;4892469;29;20028;-88
2021/07/09 01:08:39;;;;;;;29.67;14.90;;;;;;;13.75;82.31;102256.94;4876653;29;20100;-87
2021/07/09 01:11:06;;;;;;;22.13;12.13;;;;;;;13.70;81.57;102249.19;4896533;29;20056;-87
2021/07/09 01:13:32;;;;;;;28.92;14.57;;;;;;;13.66;82.02;102247.59;4911415;29;20489;-87
2021/07/09 01:15:58;;;;;;;30.45;15.85;;;;;;;13.64;82.27;102242.34;4896259;29;20037;-88
2021/07/09 01:18:24;;;;;;;25.67;13.45;;;;;;;13.60;81.53;102237.22;4864683;29;20032;-87
2021/07/09 01:20:53;;;;;;;31.67;15.52;;;;;;;13.60;82.46;102242.53;4897056;29;20073;-91
2021/07/09 01:23:25;;;;;;;24.38;12.85;;;;;;;13.54;81.62;102254.31;4879056;29;20048;-93
2021/07/09 01:25:53;;;;;;;26.35;13.60;;;;;;;13.52;82.06;102246.41;4894435;29;20041;-89
2021/07/09 01:28:23;;;;;;;30.17;14.32;;;;;;;13.51;82.06;102254.44;4878023;29;20077;-88
2021/07/09 01:30:50;;;;;;;29.35;14.82;;;;;;;13.53;82.30;102253.44;4879362;29;20063;-86
2021/07/09 01:33:19;;;;;;;31.20;15.05;;;;;;;13.58;82.93;102254.13;4908718;29;20176;-89
2021/07/09 01:35:49;;;;;;;35.78;15.55;;;;;;;13.65;84.21;102252.03;4879347;29;20052;-89
2021/07/09 01:38:18;;;;;;;32.85;16.55;;;;;;;13.66;83.65;102244.94;4892793;29;20040;-90
2021/07/09 01:40:46;;;;;;;44.38;18.05;;;;;;;13.74;83.88;102248.13;4879362;29;20530;-89
2021/07/09 01:43:12;;;;;;;40.58;17.83;;;;;;;13.80;84.55;102252.31;4879146;29;20471;-88
2021/07/09 01:45:38;;;;;;;45.08;18.65;;;;;;;13.82;85.33;102251.28;4893873;29;20050;-87
2021/07/09 01:48:08;;;;;;;45.92;20.40;;;;;;;13.81;85.31;102248.69;4893327;29;20382;-90
2021/07/09 01:50:37;;;;;;;40.70;19.15;;;;;;;13.80;85.24;102252.31;4860490;29;20171;-87
2021/07/09 01:53:03;;;;;;;44.95;20.88;;;;;;;13.81;85.07;102246.91;4907725;29;20029;-89
2021/07/09 01:55:34;;;;;;;54.97;22.25;;;;;;;13.81;85.26;102249.56;4907549;29;20032;-88
2021/07/09 01:58:00;;;;;;;49.95;21.77;;;;;;;13.79;86.07;102237.28;4911973;29;20028;-87
2021/07/09 02:00:26;;;;;;;46.63;21.25;;;;;;;13.78;86.01;102247.06;4879115;29;20044;-89
2021/07/09 02:02:54;;;;;;;57.20;22.83;;;;;;;13.79;85.96;102237.28;4879529;29;20040;-89
2021/07/09 02:05:23;;;;;;;47.00;20.70;;;;;;;13.76;85.58;102240.94;4879821;29;20037;-88
2021/07/09 02:07:55;;;;;;;62.35;24.42;;;;;;;13.80;85.85;102241.66;4881596;29;20084;-89
2021/07/09 02:10:31;;;;;;;53.00;21.58;;;;;;;13.77;85.68;102245.34;4912183;29;20041;-88
2021/07/09 02:13:03;;;;;;;54.35;23.20;;;;;;;13.72;85.57;102234.03;4914107;29;20136;-87
2021/07/09 02:15:47;;;;;;;57.45;23.60;;;;;;;13.73;85.99;102241.06;4885381;29;20100;-88
2021/07/09 02:18:22;;;;;;;59.85;25.38;;;;;;;13.71;85.51;102240.28;4910447;29;20421;-87
2021/07/09 02:20:48;;;;;;;55.90;23.85;;;;;;;13.76;86.17;102242.75;4894574;29;20048;-87
2021/07/09 02:23:18;;;;;;;58.67;24.35;;;;;;;13.73;86.33;102242.88;4894269;29;20045;-88
2021/07/09 02:25:45;;;;;;;51.33;21.40;;;;;;;13.70;86.07;102244.72;4894704;29;20055;-87
2021/07/09 02:28:15;;;;;;;57.55;25.55;;;;;;;13.74;85.94;102248.13;4910983;29;20032;-90
2021/07/09 02:30:41;;;;;;;66.30;26.65;;;;;;;13.79;86.33;102254.09;4909943;29;20079;-91
2021/07/09 02:33:07;;;;;;;58.60;23.88;;;;;;;13.76;86.12;102242.75;4893433;29;20114;-89
2021/07/09 02:35:41;;;;;;;54.72;23.45;;;;;;;13.74;85.77;102244.59;4908226;29;20052;-88
2021/07/09 02:38:08;;;;;;;61.05;25.33;;;;;;;13.76;85.91;102240.09;4879456;29;20112;-87
2021/07/09 02:40:34;;;;;;;63.72;25.77;;;;;;;13.74;86.03;102239.28;4894474;29;20088;-88
2021/07/09 02:43:18;;;;;;;52.33;22.02;;;;;;;13.66;86.08;102242.28;4878111;29;20536;-86
2021/07/09 02:45:50;;;;;;;46.00;20.25;;;;;;;13.54;85.72;102241.88;4911175;29;20040;-87
2021/07/09 02:48:23;;;;;;;41.03;18.13;;;;;;;13.45;85.15;102242.25;4910629;29;20120;-89
2021/07/09 02:50:50;;;;;;;52.75;20.48;;;;;;;13.38;85.03;102243.44;4895573;29;20100;-87
2021/07/09 02:53:15;;;;;;;47.63;19.58;;;;;;;13.33;85.35;102243.63;4911868;29;20131;-87
2021/07/09 02:55:48;;;;;;;;;;;;;;;13.25;85.01;102241.31;4911733;29;20048;-87
2021/07/09 02:58:15;;;;;;;54.47;21.08;;;;;;;13.24;85.21;102236.91;4880342;29;19958;-86
2021/07/09 03:00:46;;;;;;;42.03;19.63;;;;;;;13.19;84.26;102228.28;4896278;29;20051;-87
2021/07/09 03:03:14;;;;;;;52.97;20.65;;;;;;;13.19;85.17;102230.94;4915912;29;20016;-87
2021/07/09 03:05:40;;;;;;;45.10;18.52;;;;;;;13.18;84.77;102234.50;4882512;29;20048;-88
2021/07/09 03:08:07;;;;;;;40.72;18.95;;;;;;;13.14;84.41;102232.91;4914277;29;20044;-88
2021/07/09 03:10:40;;;;;;;54.28;21.60;;;;;;;13.17;85.71;102233.66;4896869;29;20100;-88
2021/07/09 03:13:13;;;;;;;50.40;21.20;;;;;;;13.17;85.15;102233.66;4915912;29;20126;-87
2021/07/09 03:15:38;;;;;;;49.63;19.65;;;;;;;13.14;84.97;102230.25;4913702;29;20108;-88
2021/07/09 03:18:06;;;;;;;46.08;19.08;;;;;;;13.13;84.79;102226.72;4897751;29;20104;-88
2021/07/09 03:20:33;;;;;;;49.80;20.55;;;;;;;13.13;85.12;102225.88;4913388;29;20115;-88
2021/07/09 03:23:04;;;;;;;45.25;18.67;;;;;;;13.10;84.59;102228.66;4897271;29;20023;-87
2021/07/09 03:25:30;;;;;;;42.38;18.05;;;;;;;13.05;84.14;102221.72;4881897;29;20401;-87
2021/07/09 03:27:56;;;;;;;38.05;17.65;;;;;;;13.03;83.80;102212.13;4881437;29;20040;-86
2021/07/09 03:30:38;;;;;;;39.35;17.48;;;;;;;13.04;84.51;102216.47;4896643;29;20051;-88
2021/07/09 03:33:07;;;;;;;53.33;20.23;;;;;;;13.07;84.77;102219.00;4896539;29;20047;-88
2021/07/09 03:35:42;;;;;;;46.63;20.05;;;;;;;13.06;84.85;102212.84;4895990;29;20052;-88
2021/07/09 03:38:12;;;;;;;50.03;20.37;;;;;;;13.09;85.05;102214.50;4917009;29;20045;-91
2021/07/09 03:40:39;;;;;;;48.25;19.90;;;;;;;13.07;85.15;102227.84;4882791;29;20285;-88
2021/07/09 03:43:10;;;;;;;50.28;20.15;;;;;;;13.07;85.38;102219.88;4897831;29;20110;-87
2021/07/09 03:45:36;;;;;;;51.78;20.55;;;;;;;13.09;85.04;102214.50;4897569;29;20077;-88
2021/07/09 03:48:04;;;;;;;48.15;19.27;;;;;;;13.05;85.15;102211.09;4880843;29;20048;-87
2021/07/09 03:50:32;;;;;;;55.63;22.05;;;;;;;13.05;85.26;102218.22;4899083;29;20096;-88
2021/07/09 03:53:02;;;;;;;53.00;21.35;;;;;;;13.06;85.71;102215.50;4883770;29;20036;-88
2021/07/09 03:55:30;;;;;;;69.05;27.05;;;;;;;13.12;86.13;102224.13;4877787;29;20037;-87
2021/07/09 03:57:56;;;;;;;53.50;23.13;;;;;;;13.13;85.84;102228.53;4898824;29;20028;-88
2021/07/09 04:00:24;;;;;;;55.10;22.63;;;;;;;13.14;85.49;102227.59;4914132;29;20048;-88
2021/07/09 04:02:56;;;;;;;48.40;20.95;;;;;;;13.17;85.18;102230.13;4914408;29;20500;-87
2021/07/09 04:05:22;;;;;;;50.13;20.98;;;;;;;13.16;85.50;102231.91;4915719;29;20033;-87
2021/07/09 04:07:49;;;;;;;58.97;23.40;;;;;;;13.24;85.52;102222.78;4900544;29;20037;-89
2021/07/09 04:10:16;;;;;;;54.30;22.38;;;;;;;13.29;85.83;102232.25;4870868;29;20100;-89
2021/07/09 04:12:50;;;;;;;49.50;19.42;;;;;;;13.33;85.07;102239.19;4885845;29;20048;-86
2021/07/09 04:15:21;;;;;;;49.28;20.63;;;;;;;13.33;84.85;102227.69;4900628;29;20059;-86
2021/07/09 04:17:48;;;;;;;46.00;19.85;;;;;;;13.39;84.88;102235.41;4898485;29;20052;-88
2021/07/09 04:20:15;;;;;;;46.85;18.90;;;;;;;13.43;85.17;102238.81;4897409;29;20024;-89
2021/07/09 04:22:41;;;;;;;51.95;21.55;;;;;;;13.47;84.87;102237.72;4898331;29;20020;-87
2021/07/09 04:25:10;;;;;;;37.33;15.68;;;;;;;13.52;85.16;102237.56;4882463;29;20049;-89
2021/07/09 04:27:37;;;;;;;52.35;20.98;;;;;;;13.61;85.25;102236.28;4892630;29;20036;-88
2021/07/09 04:30:11;;;;;;;41.65;18.20;;;;;;;13.67;84.99;102233.38;4878452;29;20491;-86
2021/07/09 04:32:38;;;;;;;45.70;19.50;;;;;;;13.78;84.89;102241.75;4919157;24;20084;-88
2021/07/09 04:35:08;;;;;;;55.65;24.25;;;;;;;13.95;85.79;102238.31;4896839;29;20048;-90
2021/07/09 04:37:34;;;;;;;66.97;26.55;;;;;;;14.11;85.63;102240.28;4895728;29;20068;-86
2021/07/09 04:40:00;;;;;;;57.05;25.27;;;;;;;14.20;84.52;102242.53;4912088;29;20055;-87
2021/07/09 04:42:26;;;;;;;59.00;25.95;;;;;;;14.31;84.34;102243.81;4897261;29;20028;-90
2021/07/09 04:44:53;;;;;;;51.28;23.60;;;;;;;14.42;83.90;102244.19;4928133;29;20056;-89
2021/07/09 04:47:19;;;;;;;58.55;27.48;;;;;;;14.52;84.06;102243.75;4911848;29;20055;-90
2021/07/09 04:49:44;;;;;;;58.42;25.42;;;;;;;14.62;83.98;102238.84;4911040;29;20509;-88
2021/07/09 04:52:10;;;;;;;59.97;26.85;;;;;;;14.69;83.45;102246.47;4936059;29;20044;-88
2021/07/09 04:54:35;;;;;;;50.08;25.15;;;;;;;14.79;83.12;102246.06;4922560;29;21081;-90
2021/07/09 04:57:01;;;;;;;52.25;24.70;;;;;;;14.86;82.50;102247.47;4910965;29;20080;-88
2021/07/09 04:59:26;;;;;;;55.60;26.27;;;;;;;14.93;82.07;102246.25;4910067;29;20040;-90
2021/07/09 05:01:56;;;;;;;51.13;25.40;;;;;;;15.00;82.05;102249.44;4910948;29;20038;-88
2021/07/09 05:04:24;;;;;;;52.90;26.00;;;;;;;15.14;82.02;102254.09;4942937;29;20028;-88
2021/07/09 05:06:51;;;;;;;46.75;23.75;;;;;;;15.19;81.25;102251.19;4926382;29;20051;-90
2021/07/09 05:09:18;;;;;;;49.20;25.92;;;;;;;15.45;80.91;102249.88;4910935;29;20102;-90
2021/07/09 05:11:44;;;;;;;45.35;23.65;;;;;;;15.64;80.27;102256.06;4911332;29;20040;-90
2021/07/09 05:14:12;;;;;;;41.75;23.08;;;;;;;15.80;79.52;102253.44;4911516;29;20134;-87
2021/07/09 05:16:39;;;;;;;36.65;21.25;;;;;;;15.78;79.10;102248.19;4939473;29;20024;-88
2021/07/09 05:19:06;;;;;;;40.10;22.25;;;;;;;15.93;79.07;102248.31;4926332;29;20336;-89
2021/07/09 05:21:32;;;;;;;38.40;22.10;;;;;;;15.89;79.07;102249.44;4924453;29;20048;-91
2021/07/09 05:24:06;;;;;;;39.85;22.67;;;;;;;15.91;79.37;102258.22;4880309;29;20119;-89
2021/07/09 05:26:32;;;;;;;37.70;21.80;;;;;;;15.93;79.19;102259.88;4881690;29;20034;-89
2021/07/09 05:28:58;;;;;;;36.83;22.55;;;;;;;16.01;78.83;102258.63;4897442;29;20084;-89
2021/07/09 05:31:24;;;;;;;38.95;21.85;;;;;;;16.17;77.99;102261.31;4896740;29;20032;-91
2021/07/09 05:33:55;;;;;;;39.00;22.77;;;;;;;16.52;77.37;102257.66;4895555;29;20139;-90
2021/07/09 05:36:24;;;;;;;37.67;21.52;;;;;;;16.45;77.14;102262.47;4910325;29;20119;-89
2021/07/09 05:38:53;;;;;;;33.50;20.40;;;;;;;16.63;76.94;102260.56;4910079;29;20048;-90
2021/07/09 05:41:20;;;;;;;33.75;20.35;;;;;;;16.65;76.01;102261.38;4909712;29;20067;-91
2021/07/09 05:43:51;;;;;;;32.25;19.73;;;;;;;16.72;76.11;102261.88;4880443;29;20087;-88
2021/07/09 05:46:17;;;;;;;29.23;17.88;;;;;;;16.71;75.78;102260.13;4863934;29;20044;-88
2021/07/09 05:48:43;;;;;;;26.92;16.35;;;;;;;16.96;75.10;102258.72;4878806;29;20028;-94
2021/07/09 05:51:09;;;;;;;31.45;17.95;;;;;;;16.89;75.68;102262.72;4893365;29;20118;-90
2021/07/09 05:53:37;;;;;;;21.65;14.65;;;;;;;17.02;74.79;102263.72;4892255;29;20059;-90
2021/07/09 05:56:04;;;;;;;21.10;13.55;;;;;;;17.10;74.04;102255.28;4878563;29;20047;-90
2021/07/09 05:58:31;;;;;;;16.67;10.95;;;;;;;17.23;72.83;102263.47;4891420;29;20121;-91
2021/07/09 06:00:56;;;;;;;15.13;8.88;;;;;;;17.55;71.01;102266.03;4908194;29;20032;-90
2021/07/09 06:03:22;;;;;;;17.92;12.25;;;;;;;17.43;72.41;102256.94;4893277;29;20028;-89
2021/07/09 06:05:47;;;;;;;20.33;13.18;;;;;;;17.71;72.00;102258.88;4877914;29;20062;-89
2021/07/09 06:08:14;;;;;;;15.38;10.85;;;;;;;17.39;71.74;102255.41;4909362;29;20460;-89
2021/07/09 06:10:40;;;;;;;15.77;10.70;;;;;;;17.41;72.13;102261.53;4909946;29;20036;-93
2021/07/09 06:13:06;;;;;;;18.85;11.57;;;;;;;17.65;71.55;102265.47;4909612;29;20036;-90
2021/07/09 06:15:35;;;;;;;17.00;10.02;;;;;;;17.54;71.33;102260.78;4893640;29;20064;-88
2021/07/09 06:18:01;;;;;;;20.85;12.65;;;;;;;17.69;71.88;102256.31;4925366;29;20036;-86
2021/07/09 06:20:29;;;;;;;16.80;10.80;;;;;;;17.74;71.28;102256.91;4909117;29;20466;-88
2021/07/09 06:22:57;;;;;;;15.85;9.77;;;;;;;17.46;71.40;102255.03;4927471;29;20103;-87
2021/07/09 06:25:25;;;;;;;13.73;9.52;;;;;;;17.53;70.66;102251.91;4929444;29;20032;-87
2021/07/09 06:27:57;;;;;;;18.38;10.65;;;;;;;17.91;69.82;102257.66;4913230;29;20035;-87
2021/07/09 06:30:27;;;;;;;15.45;10.30;;;;;;;18.00;69.15;102251.75;4931025;29;20062;-89
2021/07/09 06:32:53;;;;;;;16.90;10.30;;;;;;;17.89;69.44;102246.19;4888715;29;20100;-90
2021/07/09 06:35:19;;;;;;;18.38;10.73;;;;;;;17.76;70.45;102254.13;4880902;29;20052;-92
2021/07/09 06:37:44;;;;;;;15.20;11.25;;;;;;;17.68;70.46;102249.25;4868816;29;20113;-91
2021/07/09 06:40:13;;;;;;;18.10;11.88;;;;;;;17.82;69.41;102248.41;4879703;29;20047;-93
2021/07/09 06:42:38;;;;;;;18.42;12.13;;;;;;;18.12;69.42;102250.13;4892065;29;20029;-89
2021/07/09 06:45:07;;;;;;;18.52;12.63;;;;;;;17.99;69.33;102255.38;4891509;29;20041;-90
2021/07/09 06:47:36;;;;;;;16.90;11.73;;;;;;;17.96;69.76;102247.53;4876733;29;20051;-93
2021/07/09 06:50:03;;;;;;;16.27;11.00;;;;;;;18.18;67.98;102248.91;4876597;29;20040;-93
2021/07/09 06:52:33;;;;;;;14.75;10.60;;;;;;;18.15;68.10;102243.75;4891515;29;20028;-92
2021/07/09 06:55:04;;;;;;;16.77;10.50;;;;;;;17.91;69.02;102250.50;4893062;29;20031;-94
2021/07/09 06:57:49;;;;;;;17.70;9.27;;;;;;;17.56;69.65;102251.72;4866865;29;20052;-91
2021/07/09 07:00:20;;;;;;;15.38;9.68;;;;;;;17.40;70.47;102250.94;4882382;29;20060;-91
2021/07/09 07:02:58;;;;;;;15.07;9.35;;;;;;;17.54;70.19;102247.41;4883139;29;20025;-94
2021/07/09 07:05:24;;;;;;;18.23;10.20;;;;;;;17.31;71.02;102250.50;4893182;29;20041;-90
2021/07/09 07:07:50;;;;;;;16.92;10.88;;;;;;;17.35;71.07;102253.88;4879068;29;20052;-89
2021/07/09 07:10:24;;;;;;;17.52;11.32;;;;;;;17.50;70.44;102251.22;4894063;29;20033;-90
2021/07/09 07:12:50;;;;;;;16.13;10.73;;;;;;;17.34;71.75;102260.16;4915479;29;20032;-91
2021/07/09 07:15:20;;;;;;;16.85;10.75;;;;;;;17.49;71.13;102260.19;4908215;29;20252;-93
2021/07/09 07:17:51;;;;;;;15.27;10.57;;;;;;;17.53;71.07;102251.91;4890957;29;20035;-91
2021/07/09 07:20:25;;;;;;;16.75;10.30;;;;;;;17.71;70.82;102259.75;4921295;29;20036;-91
2021/07/09 07:22:52;;;;;;;17.90;10.93;;;;;;;17.88;69.92;102255.19;4910302;29;20013;-90
2021/07/09 07:25:34;;;;;;;17.77;11.52;;;;;;;17.90;69.43;102254.13;4881576;29;20040;-92
2021/07/09 07:28:02;;;;;;;19.85;11.70;;;;;;;18.05;69.50;102260.34;4906309;29;20056;-91
2021/07/09 07:30:43;;;;;;;16.83;10.55;;;;;;;18.32;68.58;102258.72;4893151;29;20032;-90
2021/07/09 07:33:13;;;;;;;13.77;9.88;;;;;;;18.37;67.94;102269.16;4926377;29;20040;-92
2021/07/09 07:35:39;;;;;;;13.88;9.27;;;;;;;18.36;67.62;102265.59;4912072;29;20024;-91
2021/07/09 07:38:05;;;;;;;16.33;9.85;;;;;;;18.49;67.51;102265.69;4893260;29;20040;-92
2021/07/09 07:40:34;;;;;;;18.23;10.57;;;;;;;18.51;67.88;102270.94;4887863;29;20043;-92
2021/07/09 07:43:02;;;;;;;18.65;10.48;;;;;;;18.66;66.95;102274.44;4887914;29;20024;-93
2021/07/09 07:45:32;;;;;;;16.58;10.68;;;;;;;18.71;67.00;102269.66;4917945;29;20137;-92
2021/07/09 07:48:03;;;;;;;;;;;;;;;18.75;67.27;102276.50;4912963;29;20040;-93
2021/07/09 07:50:29;;;;;;;17.02;10.43;;;;;;;18.82;66.99;102274.31;4883730;29;19982;-92
2021/07/09 07:53:10;;;;;;;15.60;9.98;;;;;;;19.04;66.70;102267.53;4916033;29;20056;-93
2021/07/09 07:55:39;;;;;;;15.25;9.98;;;;;;;19.11;65.69;102274.22;4903332;29;20052;-93
2021/07/09 07:58:05;;;;;;;17.10;9.50;;;;;;;19.16;65.31;102266.72;4903578;29;20046;-92
2021/07/09 08:00:38;;;;;;;18.10;9.88;;;;;;;18.89;65.80;102267.56;4903427;29;20039;-92
2021/07/09 08:03:07;;;;;;;15.38;9.27;;;;;;;18.88;66.21;102263.19;4918096;29;20028;-91
2021/07/09 08:05:34;;;;;;;13.60;8.27;;;;;;;19.05;65.34;102267.41;4887408;29;20051;-92
2021/07/09 08:08:06;;;;;;;14.60;8.70;;;;;;;19.16;64.66;102271.22;4969230;24;20085;-92
2021/07/09 08:10:34;;;;;;;12.80;7.97;;;;;;;19.26;64.00;102268.78;4868867;29;20053;-91
2021/07/09 08:13:04;;;;;;;13.82;8.68;;;;;;;19.26;64.21;102258.94;4901737;29;20044;-92
2021/07/09 08:15:30;;;;;;;14.90;8.38;;;;;;;19.46;63.84;102262.06;4869253;29;20037;-93
2021/07/09 08:17:57;;;;;;;14.23;9.32;;;;;;;19.40;64.62;102258.00;4865814;29;20069;-92
2021/07/09 08:20:28;;;;;;;13.20;7.13;;;;;;;19.54;63.55;102264.22;4911065;29;20078;-93
2021/07/09 08:23:03;;;;;;;13.23;7.57;;;;;;;19.88;61.63;102258.31;4897366;29;20056;-92
2021/07/09 08:25:32;;;;;;;11.45;7.43;;;;;;;19.56;62.24;102254.25;4880273;29;20072;-93
2021/07/09 08:28:14;;;;;;;12.45;6.95;;;;;;;19.86;61.74;102257.56;4880176;29;20052;-92
2021/07/09 08:30:46;;;;;;;11.90;7.82;;;;;;;19.94;62.00;102249.81;4896917;29;20028;-92
2021/07/09 08:33:39;;;;;;;8.90;7.13;;;;;;;20.46;59.92;102260.50;4872795;24;20057;-93
2021/07/09 08:36:33;;;;;;;9.48;7.13;;;;;;;20.74;58.99;102255.75;4876862;29;20057;-91
2021/07/09 08:39:06;;;;;;;10.18;6.95;;;;;;;21.79;55.53;102258.72;4879891;29;20048;-93
2021/07/09 08:42:07;;;;;;;9.02;6.20;;;;;;;22.40;52.96;102240.44;4866933;29;20025;-91
2021/07/09 08:44:53;;;;;;;7.97;5.53;;;;;;;23.97;47.98;102241.72;4863209;29;20021;-93
2021/07/09 08:47:27;;;;;;;6.93;5.80;;;;;;;23.57;48.93;102249.66;4862328;29;20092;-92
2021/07/09 08:50:03;;;;;;;9.68;6.70;;;;;;;24.66;47.47;102246.47;4879707;29;20025;-92
2021/07/09 08:52:36;;;;;;;8.48;6.25;;;;;;;25.17;46.33;102246.31;4862039;29;20066;-94
2021/07/09 08:55:12;;;;;;;8.80;6.35;;;;;;;25.58;44.60;102241.56;4878680;29;20056;-92
2021/07/09 08:58:05;;;;;;;7.25;5.90;;;;;;;26.25;43.54;102242.41;4879181;29;20481;-92
2021/07/09 09:00:46;;;;;;;7.15;5.72;;;;;;;26.38;43.01;102242.06;4879552;29;20101;-92
2021/07/09 09:03:24;;;;;;;7.28;5.00;;;;;;;25.96;43.19;102238.00;4894392;29;20445;-91
2021/07/09 09:05:50;;;;;;;8.55;6.40;;;;;;;26.58;42.69;102245.50;4860030;29;20040;-92
2021/07/09 09:08:29;;;;;;;7.43;4.93;;;;;;;26.78;41.39;102250.78;4856409;29;20037;-92
2021/07/09 09:11:02;;;;;;;7.40;5.15;;;;;;;27.66;39.65;102247.38;4874169;29;20104;-92
2021/07/09 09:13:31;;;;;;;7.45;5.47;;;;;;;26.05;43.48;102242.53;4871770;29;20041;-93
2021/07/09 09:16:11;;;;;;;6.97;5.45;;;;;;;26.19;42.58;102249.28;4873073;29;20037;-92
2021/07/09 09:18:47;;;;;;;6.95;4.90;;;;;;;27.02;40.08;102251.19;4861651;29;20058;-94
2021/07/09 09:21:16;;;;;;;7.43;5.22;;;;;;;27.20;40.07;102248.44;4870601;29;20033;-92
2021/07/09 09:23:49;;;;;;;9.05;5.38;;;;;;;26.35;41.84;102250.50;4855736;29;20060;-92
2021/07/09 09:26:35;;;;;;;8.40;4.95;;;;;;;26.34;41.60;102249.66;4885176;29;20033;-90
2021/07/09 09:29:01;;;;;;;8.23;5.55;;;;;;;26.92;40.87;102253.94;4884425;29;20064;-89
2021/07/09 09:31:26;;;;;;;7.40;5.32;;;;;;;27.11;39.98;102253.78;4885268;29;20033;-92
2021/07/09 09:34:01;;;;;;;7.22;5.18;;;;;;;26.94;39.84;102251.94;4868533;29;20139;-92
2021/07/09 09:36:59;;;;;;;6.85;4.70;;;;;;;26.56;40.60;102252.09;4875446;29;20141;-93
2021/07/09 09:39:24;;;;;;;8.68;5.00;;;;;;;27.55;38.62;102248.50;4850667;29;20489;-89
2021/07/09 09:42:24;;;;;;;8.10;5.47;;;;;;;26.87;40.89;102252.56;4850620;29;20033;-93
2021/07/09 09:44:59;;;;;;;8.40;5.30;;;;;;;26.12;42.50;102248.19;4855710;29;20069;-92
2021/07/09 09:47:44;;;;;;;9.60;4.60;;;;;;;26.34;39.88;102246.94;4856980;29;20037;-93
2021/07/09 09:50:14;;;;;;;7.38;5.65;;;;;;;26.45;41.09;102245.03;4838630;29;20035;-93
2021/07/09 09:52:46;;;;;;;8.40;5.55;;;;;;;27.42;39.89;102246.19;4872586;29;20036;-91
2021/07/09 09:55:38;;;;;;;8.07;5.28;;;;;;;26.96;39.01;102253.47;4857311;29;20041;-93
2021/07/09 09:58:14;;;;;;;7.40;5.03;;;;;;;26.73;39.71;102244.97;4823706;29;20056;-93
2021/07/09 10:00:42;;;;;;;6.63;4.90;;;;;;;27.05;38.97;102237.31;4800458;29;20081;-93
2021/07/09 10:03:08;;;;;;;7.15;5.50;;;;;;;26.86;39.54;102245.41;4795810;29;20046;-93
2021/07/09 10:05:38;;;;;;;7.53;6.00;;;;;;;26.97;40.32;102248.91;4799429;29;20051;-91
2021/07/09 10:08:05;;;;;;;7.82;5.72;;;;;;;25.47;43.64;102241.72;4796778;29;20047;-91
2021/07/09 10:10:31;;;;;;;9.30;6.72;;;;;;;25.19;44.46;102236.22;4782232;30;20073;-92
2021/07/09 10:12:57;;;;;;;9.45;6.43;;;;;;;26.22;43.30;102246.28;4788917;29;20030;-91
2021/07/09 10:15:26;;;;;;;8.27;6.97;;;;;;;25.33;45.71;102238.47;4770842;30;20041;-90
2021/07/09 10:17:54;;;;;;;9.05;6.82;;;;;;;24.80;45.42;102239.78;4785927;30;20035;-88
2021/07/09 10:20:21;;;;;;;8.15;6.40;;;;;;;25.20;44.89;102236.06;4789227;30;20058;-89
2021/07/09 10:22:47;;;;;;;7.50;6.38;;;;;;;25.24;44.49;102232.06;4784955;30;20035;-94
2021/07/09 10:25:13;;;;;;;8.40;6.32;;;;;;;25.58;44.54;102228.00;4775681;30;20062;-93
2021/07/09 10:27:39;;;;;;;10.82;7.18;;;;;;;25.21;45.31;102234.22;4744769;30;20051;-93
2021/07/09 10:30:06;;;;;;;11.05;7.65;;;;;;;25.32;45.38;102225.94;4774531;30;20053;-93
2021/07/09 10:32:46;;;;;;;13.07;7.88;;;;;;;24.95;46.57;102230.28;4775752;30;20118;-92
2021/07/09 10:35:34;;;;;;;13.70;8.57;;;;;;;24.47;48.20;102229.22;4803140;29;20061;-93
2021/07/09 10:38:09;;;;;;;11.85;8.73;;;;;;;25.24;47.27;102231.25;4833528;29;20054;-92
2021/07/09 10:40:35;;;;;;;11.25;8.40;;;;;;;24.97;47.37;102233.69;4832831;29;20079;-93
2021/07/09 10:43:00;;;;;;;11.45;7.35;;;;;;;25.41;46.29;102229.63;4848490;29;20037;-92
2021/07/09 10:45:27;;;;;;;11.52;8.02;;;;;;;23.87;49.35;102228.19;4834096;29;20044;-92
2021/07/09 10:48:03;;;;;;;11.65;8.50;;;;;;;24.07;49.46;102218.28;4833404;29;20144;-92
2021/07/09 10:50:48;;;;;;;13.30;8.43;;;;;;;23.86;49.66;102234.59;4864777;29;20038;-92
2021/07/09 10:53:25;;;;;;;10.35;7.93;;;;;;;23.67;51.17;102241.59;4850902;29;20030;-93
2021/07/09 10:56:20;;;;;;;11.55;8.68;;;;;;;23.48;51.44;102223.44;4850654;29;20034;-93
2021/07/09 10:58:45;;;;;;;13.10;8.45;;;;;;;23.74;50.29;102225.69;4796527;29;20039;-92
2021/07/09 11:01:15;;;;;;;11.60;8.35;;;;;;;23.70;50.23;102225.13;4811203;29;20180;-93
2021/07/09 11:03:41;;;;;;;13.00;9.20;;;;;;;23.33;51.29;102229.16;4811860;29;20045;-93
2021/07/09 11:06:19;;;;;;;10.60;8.38;;;;;;;23.31;51.58;102224.88;4815728;29;20043;-92
2021/07/09 11:08:53;;;;;;;12.82;8.70;;;;;;;23.28;51.76;102224.16;4831041;29;20026;-92
2021/07/09 11:11:28;;;;;;;11.32;8.52;;;;;;;22.95;52.68;102231.47;4817096;29;20087;-92
2021/07/09 11:13:54;;;;;;;13.10;8.25;;;;;;;22.38;53.88;102231.63;4831319;29;20028;-91
2021/07/09 11:16:46;;;;;;;14.65;9.02;;;;;;;22.88;52.58;102231.13;4815761;29;21100;-92
2021/07/09 11:19:20;;;;;;;10.80;7.93;;;;;;;22.59;53.05;102238.94;4812087;29;20046;-92
2021/07/09 11:21:52;;;;;;;12.82;8.30;;;;;;;22.34;54.77;102236.38;4812824;29;20606;-92
2021/07/09 11:24:20;;;;;;;11.75;7.75;;;;;;;22.47;53.92;102238.94;4797818;29;20058;-91
2021/07/09 11:26:47;;;;;;;12.18;8.30;;;;;;;22.24;54.40;102219.28;4798310;29;20027;-92
2021/07/09 11:29:22;;;;;;;11.10;7.90;;;;;;;22.60;53.20;102233.44;4798052;29;20044;-92